Time;durP1;ratioP1;P1;durP2;ratioP2;P2;SDS_P1;SDS_P2;PMS_P1;PMS_P2;Temp;Humidity;BMP_temperature;BMP_pressure;BME280_temperature;BME280_humidity;BME280_pressure;Samples;Min_cycle;Max_cycle;Signal;HPM_P1;HPM_P2
2023/03/28 00:00:18;;;;;;;10.53;6.30;;;1.20;99.90;;;;;;2613397;54;20139;-76
2023/03/28 00:06:10;;;;;;;7.90;5.60;;;1.20;99.90;;;;;;2612753;54;20134;-76
2023/03/28 00:12:15;;;;;;;8.20;5.30;;;1.00;99.90;;;;;;2612790;54;20394;-76
2023/03/28 00:18:04;;;;;;;14.00;5.70;;;1.10;99.90;;;;;;2612766;39;20607;-69
2023/03/28 00:23:53;;;;;;;10.10;5.97;;;1.00;99.90;;;;;;2610669;54;21107;-69
2023/03/28 00:29:40;;;;;;;12.03;6.10;;;1.00;99.90;;;;;;2611677;54;21478;-69
2023/03/28 00:35:28;;;;;;;13.40;6.10;;;1.00;99.90;;;;;;2611415;54;20409;-70
2023/03/28 00:41:17;;;;;;;6.53;5.50;;;1.20;99.90;;;;;;2610675;54;20131;-69
2023/03/28 00:47:07;;;;;;;10.10;4.90;;;1.20;99.90;;;;;;2614027;54;20423;-69
2023/03/28 00:59:19;;;;;;;10.23;5.90;;;1.10;99.90;;;;;;2611959;54;20406;-70
2023/03/28 01:05:08;;;;;;;13.47;6.50;;;1.00;99.90;;;;;;2613274;54;20391;-69
2023/03/28 01:14:21;;;;;;;8.93;5.43;;;1.10;99.90;;;;;;2609418;54;20394;-69
2023/03/28 01:39:46;;;;;;;10.83;5.73;;;0.90;99.90;;;;;;2612109;54;20372;-69
2023/03/28 02:05:14;;;;;;;15.70;6.97;;;0.30;99.90;;;;;;2612372;54;20359;-70
2023/03/28 02:14:27;;;;;;;15.77;6.90;;;0.20;99.90;;;;;;2609703;54;20435;-70
2023/03/28 02:20:18;;;;;;;7.50;6.73;;;-0.10;99.90;;;;;;2612275;54;20919;-70
2023/03/28 02:26:06;;;;;;;14.10;7.97;;;-0.20;99.90;;;;;;2613358;54;20379;-69
2023/03/28 02:31:54;;;;;;;9.63;7.30;;;-0.20;99.90;;;;;;2613749;54;20394;-70
2023/03/28 02:37:48;;;;;;;23.87;8.50;;;-0.40;99.90;;;;;;2612978;54;20475;-69
2023/03/28 02:50:29;;;;;;;8.67;6.60;;;-0.10;99.90;;;;;;2612015;54;20957;-70
2023/03/28 03:02:50;;;;;;;18.40;7.50;;;-0.50;99.90;;;;;;2613781;54;20921;-74
2023/03/28 03:08:38;;;;;;;14.33;8.57;;;-0.40;99.90;;;;;;2613888;54;20394;-74
2023/03/28 03:17:48;;;;;;;14.03;7.57;;;-0.60;99.90;;;;;;2614058;54;20347;-75
2023/03/28 03:23:36;;;;;;;13.90;8.40;;;-0.70;99.90;;;;;;2613898;39;20543;-75
2023/03/28 03:29:23;;;;;;;10.93;7.93;;;-0.80;99.90;;;;;;2614055;54;20154;-75
2023/03/28 03:35:11;;;;;;;12.73;8.60;;;-0.90;99.90;;;;;;2614236;54;20130;-75
2023/03/28 03:41:00;;;;;;;13.83;8.63;;;-0.70;99.90;;;;;;2613804;39;20523;-74
2023/03/28 03:46:47;;;;;;;22.43;9.00;;;-0.70;99.90;;;;;;2614089;54;20342;-75
2023/03/28 03:52:35;;;;;;;9.47;8.20;;;-0.80;99.90;;;;;;2613432;54;20383;-75
2023/03/28 03:58:23;;;;;;;14.67;8.33;;;-0.70;99.90;;;;;;2612962;54;20956;-75
2023/03/28 04:04:11;;;;;;;14.93;9.37;;;-0.70;99.90;;;;;;2613265;54;20126;-74
2023/03/28 04:09:59;;;;;;;16.40;8.97;;;-0.70;99.90;;;;;;2614017;54;20402;-75
2023/03/28 04:13:18;;;;;;;12.63;9.60;;;-0.70;99.90;;;;;;2611501;47;20407;-74
2023/03/28 04:15:46;;;;;;;20.83;9.43;;;-0.70;99.90;;;;;;2613390;54;20182;-76
2023/03/28 04:21:34;;;;;;;17.33;8.97;;;-0.50;99.90;;;;;;2611725;54;20415;-75
2023/03/28 04:27:28;;;;;;;17.30;9.43;;;-0.40;99.90;;;;;;2614379;54;20483;-75
2023/03/28 04:33:16;;;;;;;14.60;10.03;;;-0.70;99.90;;;;;;2614251;54;20387;-76
2023/03/28 04:39:04;;;;;;;12.60;9.23;;;-0.70;99.90;;;;;;2611618;39;20557;-75
2023/03/28 04:44:51;;;;;;;11.40;8.80;;;-1.00;99.90;;;;;;2612369;54;20693;-75
2023/03/28 04:50:39;;;;;;;17.37;9.37;;;-1.10;99.90;;;;;;2610969;54;20145;-75
2023/03/28 04:56:26;;;;;;;17.77;10.03;;;-1.00;99.90;;;;;;2612023;54;20161;-75
2023/03/28 05:02:14;;;;;;;11.40;10.13;;;-1.00;99.90;;;;;;2611240;54;20135;-76
2023/03/28 05:08:02;;;;;;;18.57;11.03;;;-0.80;99.90;;;;;;2612855;54;20412;-75
2023/03/28 05:17:49;;;;;;;14.97;9.77;;;-0.80;99.90;;;;;;2611522;54;20382;-78
2023/03/28 05:23:37;;;;;;;20.73;11.47;;;-0.70;99.90;;;;;;2610699;54;20411;-75
2023/03/28 05:29:25;;;;;;;21.70;11.77;;;-0.70;99.90;;;;;;2607653;39;20498;-74
2023/03/28 05:35:15;;;;;;;12.40;10.30;;;-0.40;99.90;;;;;;2612432;54;20158;-74
2023/03/28 05:41:02;;;;;;;16.47;11.63;;;-0.40;99.90;;;;;;2608876;46;20382;-75
2023/03/28 05:46:50;;;;;;;17.23;11.93;;;-0.30;99.90;;;;;;2607644;54;20145;-76
2023/03/28 05:52:38;;;;;;;24.03;11.63;;;0.00;99.90;;;;;;2604809;54;20130;-75
2023/03/28 05:58:25;;;;;;;20.17;14.10;;;0.10;99.90;;;;;;2607025;54;20170;-76
2023/03/28 06:04:13;;;;;;;25.63;13.57;;;0.50;99.90;;;;;;2610968;54;20146;-75
2023/03/28 06:10:02;;;;;;;19.70;12.77;;;0.70;99.90;;;;;;2608046;54;20684;-75
2023/03/28 06:13:19;;;;;;;42.60;13.57;;;0.80;99.90;;;;;;2608769;54;20430;-75
2023/03/28 06:15:45;;;;;;;20.50;12.13;;;0.90;99.90;;;;;;2609677;39;20514;-76
2023/03/28 06:21:32;;;;;;;22.10;12.33;;;1.50;99.90;;;;;;2607607;54;20612;-76
2023/03/28 06:27:21;;;;;;;13.90;11.33;;;1.80;99.90;;;;;;2608166;54;20166;-75
2023/03/28 06:33:08;;;;;;;20.93;13.37;;;3.30;99.90;;;;;;2612052;54;20378;-75
2023/03/28 06:38:57;;;;;;;17.30;12.80;;;4.00;99.90;;;;;;2611763;54;20132;-74
2023/03/28 06:44:44;;;;;;;16.97;14.70;;;4.20;99.90;;;;;;2610171;54;20557;-74
2023/03/28 06:50:32;;;;;;;18.30;15.13;;;5.00;99.90;;;;;;2610300;54;20249;-75
2023/03/28 06:53:38;;;;;;;14.33;11.80;;;5.40;99.90;;;;;;2609040;54;20420;-75
2023/03/28 06:56:05;;;;;;;16.63;12.80;;;5.60;99.90;;;;;;2610899;54;20150;-74
2023/03/28 07:01:53;;;;;;;13.87;12.67;;;5.60;99.90;;;;;;2609982;54;20373;-76
2023/03/28 07:07:41;;;;;;;14.70;12.03;;;5.90;92.70;;;;;;2610412;54;20134;-75
2023/03/28 07:17:50;;;;;;;13.07;11.70;;;6.50;90.10;;;;;;2612103;54;20367;-74
2023/03/28 07:23:38;;;;;;;16.27;13.30;;;7.00;72.20;;;;;;2614054;54;20367;-74
2023/03/28 07:29:26;;;;;;;15.27;13.47;;;6.80;78.10;;;;;;2612568;54;21072;-75
2023/03/28 07:35:13;;;;;;;14.57;13.17;;;7.10;67.30;;;;;;2614269;54;20139;-74
2023/03/28 07:41:01;;;;;;;15.20;13.97;;;7.20;58.50;;;;;;2614611;54;20142;-75
2023/03/28 07:46:50;;;;;;;13.90;12.90;;;8.30;50.80;;;;;;2614329;54;20138;-75
2023/03/28 07:52:44;;;;;;;14.83;13.60;;;7.80;46.10;;;;;;2613753;54;20500;-75
2023/03/28 07:58:31;;;;;;;15.70;13.77;;;7.70;44.30;;;;;;2613107;54;20399;-73
2023/03/28 08:04:19;;;;;;;15.63;14.30;;;7.80;46.30;;;;;;2613041;54;20126;-75
2023/03/28 08:10:08;;;;;;;13.70;12.70;;;8.90;37.40;;;;;;2612086;54;20917;-74
2023/03/28 08:13:19;;;;;;;19.20;14.17;;;8.40;39.50;;;;;;2612773;31;20797;-75
2023/03/28 08:15:48;;;;;;;15.57;14.27;;;8.40;32.90;;;;;;2612245;54;20480;-75
2023/03/28 08:21:36;;;;;;;15.83;14.53;;;8.70;30.50;;;;;;2611816;54;20399;-74
2023/03/28 08:27:23;;;;;;;15.10;13.47;;;8.00;30.10;;;;;;2610785;39;20798;-74
2023/03/28 08:33:11;;;;;;;16.13;14.60;;;7.70;25.50;;;;;;2612045;54;20149;-74
2023/03/28 08:38:59;;;;;;;14.50;13.07;;;9.00;27.50;;;;;;2611116;54;20186;-75
2023/03/28 08:51:31;;;;;;;14.50;13.30;;;9.00;25.40;;;;;;2612501;54;20401;-74
2023/03/28 08:57:26;;;;;;;17.90;16.17;;;10.70;24.90;;;;;;2613124;54;20390;-76
2023/03/28 09:03:22;;;;;;;12.83;12.03;;;9.40;20.50;;;;;;2613441;54;20410;-75
2023/03/28 09:15:47;;;;;;;10.40;9.70;;;9.80;12.80;;;;;;2611204;54;20439;-75
2023/03/28 09:21:53;;;;;;;12.23;11.23;;;8.60;10.00;;;;;;2612810;54;20468;-74
2023/03/28 09:27:46;;;;;;;13.60;12.37;;;9.20;8.30;;;;;;2609614;54;20416;-75
2023/03/28 09:33:37;;;;;;;12.77;11.77;;;8.50;7.00;;;;;;2611860;54;20391;-75
2023/03/28 09:39:38;;;;;;;12.43;11.60;;;7.70;8.10;;;;;;2611877;54;20964;-75
2023/03/28 09:46:04;;;;;;;11.47;10.77;;;8.10;12.70;;;;;;2612261;54;20430;-74
2023/03/28 09:51:55;;;;;;;11.87;11.00;;;7.60;12.80;;;;;;2608118;39;20846;-73
2023/03/28 09:58:02;;;;;;;11.90;11.10;;;8.20;9.40;;;;;;2612164;39;21153;-74
2023/03/28 10:03:53;;;;;;;20.03;10.80;;;8.40;3.90;;;;;;2611669;54;20399;-75
2023/03/28 10:09:53;;;;;;;12.23;11.30;;;9.00;3.90;;;;;;2612180;54;20386;-75
2023/03/28 10:15:48;;;;;;;12.27;11.53;;;8.90;2.80;;;;;;2612025;39;20856;-75
2023/03/28 10:21:36;;;;;;;14.13;12.67;;;9.20;3.70;;;;;;2609990;54;20399;-75
2023/03/28 10:27:30;;;;;;;13.53;12.27;;;8.30;5.30;;;;;;2612639;39;20569;-74
2023/03/28 10:33:19;;;;;;;13.00;12.20;;;8.70;4.00;;;;;;2611261;47;20852;-73
2023/03/28 10:39:29;;;;;;;11.83;11.23;;;10.20;1.00;;;;;;2610758;54;20391;-75
2023/03/28 10:58:38;;;;;;;11.47;10.87;;;10.30;1.00;;;;;;2611041;54;20410;-74
2023/03/28 11:01:42;;;;;;;12.43;11.70;;;9.60;1.00;;;;;;2611341;54;20423;-74
2023/03/28 11:04:14;;;;;;;13.50;12.47;;;9.50;1.00;;;;;;2611857;54;20466;-74
2023/03/28 11:07:26;;;;;;;13.93;13.13;;;9.10;1.00;;;;;;2611783;54;20530;-74
2023/03/28 11:10:17;;;;;;;14.47;13.57;;;9.80;1.00;;;;;;2612256;54;20411;-75
2023/03/28 11:13:16;;;;;;;14.10;13.17;;;9.80;1.00;;;;;;2609232;46;20426;-74
2023/03/28 11:15:48;;;;;;;13.53;12.63;;;9.60;1.00;;;;;;2612922;54;20436;-74
2023/03/28 11:21:55;;;;;;;13.67;12.63;;;10.90;1.00;;;;;;2613870;54;20415;-74
2023/03/28 12:13:12;;;;;;;13.23;12.43;;;11.70;1.00;;;;;;2609144;54;20359;-75
2023/03/28 12:19:02;;;;;;;13.20;12.23;;;9.80;1.00;;;;;;2609959;54;20367;-73
2023/03/28 12:25:02;;;;;;;13.43;12.37;;;10.50;1.00;;;;;;2613823;39;20731;-74
2023/03/28 12:37:36;;;;;;;12.90;12.10;;;10.80;1.00;;;;;;2613656;54;20391;-75
2023/03/28 12:50:05;;;;;;;17.83;13.40;;;11.70;1.00;;;;;;2611559;54;20391;-74
2023/03/28 12:55:52;;;;;;;13.57;12.67;;;11.10;1.00;;;;;;2613270;54;20446;-74
2023/03/28 13:01:53;;;;;;;13.70;13.00;;;10.90;1.00;;;;;;2610618;54;20162;-74
2023/03/28 13:08:03;;;;;;;12.47;11.47;;;11.30;1.00;;;;;;2610086;54;20395;-74
2023/03/28 13:24:24;;;;;;;13.23;12.20;;;10.60;1.00;;;;;;2609872;54;20487;-75
2023/03/28 13:36:33;;;;;;;12.50;11.90;;;11.20;1.00;;;;;;2609659;54;20533;-74
2023/03/28 13:42:29;;;;;;;13.90;12.67;;;10.70;1.00;;;;;;2610057;54;20514;-75
2023/03/28 13:48:17;;;;;;;13.27;12.57;;;10.50;1.00;;;;;;2610260;54;20367;-75
2023/03/28 13:54:05;;;;;;;11.67;10.97;;;11.00;1.00;;;;;;2610254;54;20415;-74
2023/03/28 14:00:00;;;;;;;13.43;12.63;;;10.80;1.00;;;;;;2612272;54;20394;-69
2023/03/28 14:05:47;;;;;;;13.40;12.63;;;10.70;1.00;;;;;;2610032;39;21053;-69
2023/03/28 14:11:36;;;;;;;13.67;12.50;;;11.00;1.00;;;;;;2613210;54;20142;-68
2023/03/28 14:20:54;;;;;;;14.50;13.60;;;11.00;1.00;;;;;;2612345;54;20463;-70
2023/03/28 14:26:42;;;;;;;13.03;12.33;;;11.50;1.00;;;;;;2611484;54;20411;-69
2023/03/28 14:32:31;;;;;;;13.23;12.53;;;11.30;1.00;;;;;;2611472;54;20290;-69
2023/03/28 14:44:53;;;;;;;13.43;12.73;;;11.70;1.00;;;;;;2611910;54;20426;-69
2023/03/28 14:50:42;;;;;;;14.00;13.20;;;11.90;1.00;;;;;;2613380;39;20799;-69
2023/03/28 14:56:30;;;;;;;13.13;12.43;;;11.60;1.00;;;;;;2611873;54;20410;-68
2023/03/28 15:09:25;;;;;;;14.47;13.60;;;11.70;1.00;;;;;;2613531;54;20379;-69
2023/03/28 15:21:27;;;;;;;13.83;13.13;;;12.40;1.00;;;;;;2614120;39;21976;-69
2023/03/28 15:24:24;;;;;;;14.03;13.33;;;11.10;1.00;;;;;;2613056;54;20420;-69
2023/03/28 15:30:15;;;;;;;14.43;13.73;;;12.00;1.00;;;;;;2613426;54;20499;-68
2023/03/28 15:42:36;;;;;;;14.47;13.70;;;11.20;1.00;;;;;;2613686;54;20383;-68
2023/03/28 15:48:24;;;;;;;13.63;12.93;;;10.80;1.00;;;;;;2614765;54;20126;-69
2023/03/28 15:54:14;;;;;;;14.70;13.80;;;10.50;1.00;;;;;;2613432;54;20439;-69
2023/03/28 16:00:04;;;;;;;14.60;13.57;;;9.80;1.00;;;;;;2612532;54;20475;-69
2023/03/28 16:05:54;;;;;;;12.40;11.70;;;10.00;1.00;;;;;;2613441;54;20422;-68
2023/03/28 16:11:43;;;;;;;12.63;11.93;;;9.90;1.00;;;;;;2613193;54;20416;-70
2023/03/28 16:17:31;;;;;;;12.57;11.93;;;9.90;1.00;;;;;;2614247;54;20383;-69
2023/03/28 16:26:41;;;;;;;12.77;12.17;;;9.80;1.00;;;;;;2613823;54;20937;-69
2023/03/28 16:32:29;;;;;;;13.60;12.90;;;9.80;1.00;;;;;;2611881;54;20134;-69
2023/03/28 16:38:17;;;;;;;13.73;12.73;;;9.70;1.00;;;;;;2612848;54;20138;-69
2023/03/28 16:44:05;;;;;;;12.33;11.60;;;9.60;1.00;;;;;;2612261;54;20119;-69
2023/03/28 16:49:52;;;;;;;14.43;13.63;;;9.60;1.00;;;;;;2611939;54;20114;-68
2023/03/28 16:55:40;;;;;;;14.10;13.20;;;9.50;1.00;;;;;;2612625;54;20191;-69
2023/03/28 17:01:27;;;;;;;15.37;14.30;;;9.40;1.00;;;;;;2612734;54;20151;-69
2023/03/28 17:07:16;;;;;;;13.80;13.10;;;9.40;1.00;;;;;;2612380;54;20153;-69
2023/03/28 17:13:05;;;;;;;14.23;13.17;;;9.40;1.00;;;;;;2612539;54;20391;-70
2023/03/28 17:18:53;;;;;;;15.13;14.23;;;9.40;1.00;;;;;;2614099;54;20379;-69
2023/03/28 17:22:06;;;;;;;13.60;13.00;;;9.40;1.00;;;;;;2613145;54;20448;-69
2023/03/28 17:24:32;;;;;;;14.63;13.40;;;9.30;1.00;;;;;;2611738;39;20264;-69
2023/03/28 17:30:20;;;;;;;14.00;13.30;;;9.20;1.00;;;;;;2613416;54;20952;-69
2023/03/28 17:36:20;;;;;;;12.90;12.30;;;9.20;1.00;;;;;;2612619;39;20505;-69
2023/03/28 17:42:08;;;;;;;13.17;12.37;;;9.10;1.00;;;;;;2614033;39;20730;-69
2023/03/28 17:47:56;;;;;;;14.33;13.10;;;9.00;1.00;;;;;;2612113;54;21084;-69
2023/03/28 17:53:45;;;;;;;13.60;12.70;;;8.90;1.00;;;;;;2612915;54;20203;-68
2023/03/28 17:59:33;;;;;;;14.43;13.60;;;8.70;1.00;;;;;;2611494;54;20376;-69
2023/03/28 18:05:21;;;;;;;13.50;12.63;;;8.60;1.00;;;;;;2614323;39;20526;-68
2023/03/28 18:11:13;;;;;;;14.10;13.00;;;8.50;1.00;;;;;;2608215;54;20126;-69
2023/03/28 18:17:01;;;;;;;13.60;12.67;;;8.60;1.00;;;;;;2612251;54;20383;-68
2023/03/28 18:26:35;;;;;;;15.67;14.10;;;8.50;1.00;;;;;;2612824;54;20371;-70
2023/03/28 18:32:23;;;;;;;15.07;14.17;;;8.50;1.00;;;;;;2611553;54;20411;-70
2023/03/28 18:38:12;;;;;;;15.57;14.27;;;8.50;1.00;;;;;;2612922;54;20142;-70
2023/03/28 18:44:00;;;;;;;14.60;13.20;;;8.50;1.00;;;;;;2609791;54;20468;-70
2023/03/28 18:49:47;;;;;;;14.27;13.53;;;8.50;1.00;;;;;;2608471;46;20430;-69
2023/03/28 18:55:35;;;;;;;14.20;13.30;;;8.30;1.00;;;;;;2612352;54;20166;-70
2023/03/28 19:01:22;;;;;;;14.07;13.23;;;8.40;1.00;;;;;;2614547;54;20175;-68
2023/03/28 19:07:12;;;;;;;15.17;14.20;;;8.40;1.00;;;;;;2613791;54;20681;-69
2023/03/28 19:13:00;;;;;;;16.30;15.10;;;8.50;1.00;;;;;;2609786;54;20363;-69
2023/03/28 19:18:48;;;;;;;17.17;15.40;;;8.40;1.00;;;;;;2613692;54;20129;-69
2023/03/28 19:22:06;;;;;;;17.17;15.70;;;8.50;1.00;;;;;;2614190;47;20408;-69
2023/03/28 19:24:32;;;;;;;14.67;13.63;;;8.50;1.00;;;;;;2613620;54;20147;-70
2023/03/28 19:30:20;;;;;;;12.53;11.83;;;8.60;1.00;;;;;;2614179;54;20467;-69
2023/03/28 19:36:09;;;;;;;14.47;13.43;;;8.00;15.20;;;;;;2614398;54;20126;-69
2023/03/28 19:41:56;;;;;;;14.77;13.57;;;7.40;48.60;;;;;;2613542;54;21006;-70
2023/03/28 19:47:44;;;;;;;11.87;10.67;;;7.20;76.00;;;;;;2611554;46;20154;-70
2023/03/28 19:53:32;;;;;;;11.13;10.30;;;7.10;92.60;;;;;;2613779;54;20138;-69
2023/03/28 19:59:19;;;;;;;11.37;10.47;;;6.90;99.90;;;;;;2613121;54;20139;-69
2023/03/28 20:05:08;;;;;;;8.53;7.93;;;6.60;99.90;;;;;;2614588;54;20170;-70
2023/03/28 20:10:56;;;;;;;8.63;7.93;;;6.60;99.90;;;;;;2612725;54;20531;-68
2023/03/28 20:16:43;;;;;;;12.30;7.00;;;6.50;99.90;;;;;;2614347;54;20372;-69
2023/03/28 20:26:38;;;;;;;7.73;7.03;;;6.30;99.90;;;;;;2613095;54;20419;-70
2023/03/28 20:32:25;;;;;;;7.20;6.50;;;6.30;99.90;;;;;;2612709;54;20431;-69
2023/03/28 20:38:13;;;;;;;6.33;5.77;;;6.20;99.90;;;;;;2613903;54;20605;-69
2023/03/28 20:44:04;;;;;;;7.80;6.10;;;6.10;99.90;;;;;;2611741;54;20157;-70
2023/03/28 20:49:55;;;;;;;6.87;5.80;;;6.10;99.90;;;;;;2614252;54;20388;-70
2023/03/28 20:55:43;;;;;;;7.27;5.43;;;6.00;99.90;;;;;;2612336;54;20419;-69
2023/03/28 21:01:31;;;;;;;6.93;5.23;;;5.90;99.90;;;;;;2613574;54;20162;-69
2023/03/28 21:07:21;;;;;;;7.43;5.90;;;5.80;99.90;;;;;;2613234;54;20394;-69
2023/03/28 21:13:08;;;;;;;8.73;5.13;;;5.70;99.90;;;;;;2612933;54;20380;-69
2023/03/28 21:18:57;;;;;;;7.70;5.30;;;5.60;99.90;;;;;;2613998;54;20146;-69
2023/03/28 21:22:06;;;;;;;9.00;5.63;;;5.50;99.90;;;;;;2614312;39;20937;-70
2023/03/28 21:24:32;;;;;;;5.60;4.50;;;5.50;99.90;;;;;;2612957;54;20432;-69
2023/03/28 21:30:20;;;;;;;6.20;5.33;;;5.50;99.90;;;;;;2613925;54;20367;-70
2023/03/28 21:36:11;;;;;;;6.30;5.30;;;5.50;99.90;;;;;;2613572;54;20143;-70
2023/03/28 21:41:59;;;;;;;6.23;4.87;;;5.40;99.90;;;;;;2612723;54;20893;-70
2023/03/28 21:47:47;;;;;;;6.30;4.17;;;5.30;99.90;;;;;;2613157;39;20569;-70
2023/03/28 21:53:36;;;;;;;4.23;3.57;;;5.30;99.90;;;;;;2611085;54;20372;-69
2023/03/28 21:59:23;;;;;;;4.77;4.20;;;5.30;99.90;;;;;;2613723;54;20442;-69
2023/03/28 22:05:11;;;;;;;4.70;4.10;;;5.30;99.90;;;;;;2613683;54;20126;-70
2023/03/28 22:11:01;;;;;;;6.10;4.60;;;5.30;99.90;;;;;;2612209;54;20278;-70
2023/03/28 22:16:49;;;;;;;9.60;4.10;;;5.30;99.90;;;;;;2614284;39;20741;-69
2023/03/28 22:26:36;;;;;;;7.10;5.07;;;5.30;99.90;;;;;;2613403;54;20379;-69
2023/03/28 22:32:24;;;;;;;9.03;6.43;;;5.30;99.90;;;;;;2614374;39;20715;-69
2023/03/28 22:38:12;;;;;;;6.83;4.97;;;5.30;99.90;;;;;;2612922;54;20235;-69
2023/03/28 22:44:00;;;;;;;6.43;5.27;;;5.30;99.90;;;;;;2613895;54;20146;-69
2023/03/28 22:49:47;;;;;;;8.20;6.20;;;5.30;99.90;;;;;;2612692;54;20158;-68
2023/03/28 22:55:35;;;;;;;5.37;4.87;;;5.30;99.90;;;;;;2614655;54;20143;-69
2023/03/28 23:01:24;;;;;;;7.83;5.70;;;5.30;99.90;;;;;;2614873;54;20155;-69
2023/03/28 23:07:13;;;;;;;5.70;5.20;;;5.40;99.90;;;;;;2613229;54;20526;-69
2023/03/28 23:13:00;;;;;;;6.67;6.03;;;5.40;99.90;;;;;;2614517;54;20464;-69
2023/03/28 23:18:48;;;;;;;8.40;5.30;;;5.40;99.90;;;;;;2614431;54;20126;-69
2023/03/28 23:22:06;;;;;;;5.83;5.00;;;5.40;99.90;;;;;;2614159;50;20484;-69
2023/03/28 23:24:34;;;;;;;8.40;5.40;;;5.40;99.90;;;;;;2613168;54;20431;-69
2023/03/28 23:30:22;;;;;;;6.20;5.13;;;5.50;99.90;;;;;;2613416;54;20386;-69
2023/03/28 23:36:10;;;;;;;5.10;4.60;;;5.50;99.90;;;;;;2612853;54;20134;-68
2023/03/28 23:41:58;;;;;;;4.87;4.47;;;5.50;99.90;;;;;;2612329;54;20382;-69
2023/03/28 23:47:45;;;;;;;5.20;4.70;;;5.60;99.90;;;;;;2614776;54;20122;-69
2023/03/28 23:53:33;;;;;;;4.77;4.37;;;5.50;99.90;;;;;;2613464;54;20166;-69
2023/03/28 23:59:22;;;;;;;6.00;4.47;;;5.70;99.90;;;;;;2614136;54;20157;-69
